createdAt,value
2018-10-06T00:01:16.533Z,9.00
2018-10-06T00:03:46.342Z,9.00
2018-10-06T00:06:14.702Z,9.00
2018-10-06T00:08:48.980Z,8.90
2018-10-06T00:11:24.895Z,9.00
2018-10-06T00:13:53.195Z,9.00
2018-10-06T00:16:23.152Z,9.10
2018-10-06T00:18:52.360Z,8.90
2018-10-06T00:21:22.956Z,8.90
2018-10-06T00:23:51.529Z,8.80
2018-10-06T00:26:22.016Z,8.70
2018-10-06T00:28:50.317Z,8.70
2018-10-06T00:31:18.425Z,8.60
2018-10-06T00:33:48.103Z,8.60
2018-10-06T00:36:18.362Z,8.50
2018-10-06T00:39:24.762Z,8.50
2018-10-06T00:42:18.026Z,8.60
2018-10-06T00:44:51.978Z,8.50
2018-10-06T00:53:18.152Z,8.50
2018-10-06T00:55:48.691Z,8.50
2018-10-06T00:58:18.797Z,8.50
2018-10-06T01:00:47.196Z,8.50
2018-10-06T01:03:45.417Z,8.60
2018-10-06T01:06:14.037Z,8.60
2018-10-06T01:08:43.658Z,8.50
2018-10-06T01:11:11.820Z,8.40
2018-10-06T01:13:41.958Z,8.50
2018-10-06T01:16:11.496Z,8.40
2018-10-06T01:18:39.753Z,8.30
2018-10-06T01:21:13.206Z,8.40
2018-10-06T01:23:42.086Z,8.40
2018-10-06T01:26:12.060Z,8.30
2018-10-06T01:28:42.323Z,8.30
2018-10-06T01:31:11.083Z,8.30
2018-10-06T01:33:44.831Z,8.30
2018-10-06T01:36:13.670Z,8.40
2018-10-06T01:38:44.601Z,8.40
2018-10-06T01:41:13.358Z,8.40
2018-10-06T01:43:44.665Z,8.40
2018-10-06T01:46:16.118Z,8.40
2018-10-06T01:48:45.304Z,8.30
2018-10-06T01:51:15.314Z,8.30
2018-10-06T01:53:44.240Z,8.30
2018-10-06T01:56:12.946Z,8.30
2018-10-06T01:58:41.795Z,8.30
2018-10-06T02:01:11.087Z,8.30
2018-10-06T02:03:39.178Z,8.20
2018-10-06T02:06:07.467Z,8.20
2018-10-06T02:08:35.474Z,8.10
2018-10-06T02:11:04.272Z,8.10
2018-10-06T02:13:32.368Z,8.10
2018-10-06T02:16:01.907Z,8.10
2018-10-06T02:18:30.355Z,8.10
2018-10-06T02:20:58.581Z,8.10
2018-10-06T02:23:28.048Z,8.20
2018-10-06T02:25:56.141Z,8.20
2018-10-06T02:28:24.767Z,8.20
2018-10-06T02:30:52.891Z,8.10
2018-10-06T02:33:23.795Z,8.10
2018-10-06T02:35:53.751Z,8.10
2018-10-06T02:38:22.226Z,8.10
2018-10-06T02:40:51.191Z,8.10
2018-10-06T02:43:21.142Z,8.10
2018-10-06T02:45:50.732Z,8.10
2018-10-06T02:48:23.464Z,8.10
2018-10-06T02:50:55.967Z,8.10
2018-10-06T02:53:26.159Z,8.10
2018-10-06T02:55:54.948Z,8.20
2018-10-06T02:58:24.415Z,8.10
2018-10-06T03:00:54.066Z,8.10
2018-10-06T03:03:23.255Z,8.10
2018-10-06T03:05:51.339Z,8.10
2018-10-06T03:08:19.587Z,8.10
2018-10-06T03:10:50.017Z,8.10
2018-10-06T03:13:47.013Z,8.10
2018-10-06T03:16:58.386Z,8.10
2018-10-06T03:19:26.960Z,8.10
2018-10-06T03:21:57.074Z,8.10
2018-10-06T03:24:25.169Z,8.10
2018-10-06T03:26:53.754Z,8.10
2018-10-06T03:29:23.277Z,8.10
2018-10-06T03:31:52.871Z,8.10
2018-10-06T03:34:26.163Z,8.20
2018-10-06T03:36:55.970Z,8.20
2018-10-06T03:39:24.574Z,8.20
2018-10-06T03:41:53.817Z,8.10
2018-10-06T03:44:22.079Z,8.10
2018-10-06T03:46:51.497Z,8.00
2018-10-06T03:49:22.391Z,8.00
2018-10-06T03:54:54.886Z,7.80
2018-10-06T03:57:24.134Z,7.70
2018-10-06T03:59:52.777Z,7.70
2018-10-06T04:02:22.427Z,7.60
2018-10-06T04:04:51.162Z,7.70
2018-10-06T04:07:19.837Z,7.70
2018-10-06T04:09:52.663Z,7.60
2018-10-06T04:12:21.391Z,7.60
2018-10-06T04:14:49.512Z,7.70
2018-10-06T04:17:20.392Z,7.70
2018-10-06T04:19:49.277Z,7.70
2018-10-06T04:22:18.916Z,7.70
2018-10-06T04:24:46.950Z,7.80
2018-10-06T04:27:15.525Z,7.70
2018-10-06T04:29:43.685Z,7.70
2018-10-06T04:32:13.808Z,7.70
2018-10-06T04:34:43.206Z,7.70
2018-10-06T04:37:11.332Z,7.80
2018-10-06T04:39:40.358Z,7.70
2018-10-06T04:42:09.024Z,7.80
2018-10-06T04:44:37.128Z,7.80
2018-10-06T04:50:05.426Z,7.70
2018-10-06T04:52:35.824Z,7.70
2018-10-06T04:55:05.765Z,7.70
2018-10-06T04:57:38.201Z,7.70
2018-10-06T05:00:07.865Z,7.70
2018-10-06T05:02:36.667Z,7.70
2018-10-06T05:05:04.803Z,7.60
2018-10-06T05:07:33.019Z,7.60
2018-10-06T05:10:01.713Z,7.70
2018-10-06T05:12:30.414Z,7.70
2018-10-06T05:14:59.231Z,7.60
2018-10-06T05:17:27.813Z,7.60
2018-10-06T05:19:55.974Z,7.60
2018-10-06T05:22:26.514Z,7.60
2018-10-06T05:24:54.511Z,7.50
2018-10-06T05:27:22.589Z,7.50
2018-10-06T05:29:50.649Z,7.50
2018-10-06T05:32:19.682Z,7.60
2018-10-06T05:35:21.913Z,7.60
2018-10-06T05:41:24.867Z,7.70
2018-10-06T05:43:55.088Z,7.60
2018-10-06T05:46:51.470Z,7.60
2018-10-06T05:49:46.553Z,7.50
2018-10-06T05:52:17.997Z,7.60
2018-10-06T05:54:46.531Z,7.60
2018-10-06T05:57:14.712Z,7.70
2018-10-06T05:59:43.865Z,7.70
2018-10-06T06:02:12.929Z,7.80
2018-10-06T06:04:49.816Z,7.90
2018-10-06T06:07:19.526Z,7.90
2018-10-06T06:09:50.274Z,7.90
2018-10-06T06:12:22.481Z,7.90
2018-10-06T06:14:52.285Z,8.10
2018-10-06T06:17:23.623Z,8.00
2018-10-06T06:23:53.595Z,8.10
2018-10-06T06:26:46.589Z,8.30
2018-10-06T06:29:21.773Z,8.40
2018-10-06T06:32:47.983Z,8.50
2018-10-06T06:35:21.629Z,8.70
2018-10-06T06:37:51.557Z,9.00
2018-10-06T06:40:22.988Z,9.20
2018-10-06T06:42:53.005Z,9.30
2018-10-06T06:45:21.689Z,9.50
2018-10-06T06:47:50.695Z,9.70
2018-10-06T06:50:20.664Z,9.90
2018-10-06T06:52:48.850Z,10.10
2018-10-06T06:55:18.825Z,10.10
2018-10-06T06:57:47.377Z,10.30
2018-10-06T07:00:15.601Z,10.40
2018-10-06T07:02:43.970Z,10.40
2018-10-06T07:05:13.748Z,10.60
2018-10-06T07:07:43.248Z,10.90
2018-10-06T07:10:12.007Z,11.00
2018-10-06T07:12:41.372Z,11.80
2018-10-06T07:15:10.644Z,12.20
2018-10-06T07:17:39.063Z,13.00
2018-10-06T07:20:07.554Z,13.70
2018-10-06T07:22:36.656Z,13.80
2018-10-06T07:25:05.582Z,14.40
2018-10-06T07:27:37.807Z,14.90
2018-10-06T07:30:08.430Z,15.90
2018-10-06T07:32:59.318Z,17.10
2018-10-06T07:35:44.982Z,17.90
2018-10-06T07:38:14.614Z,18.30
2018-10-06T07:40:44.309Z,18.50
2018-10-06T07:43:13.807Z,17.40
2018-10-06T07:45:42.649Z,16.60
2018-10-06T07:48:13.475Z,17.30
2018-10-06T07:50:43.079Z,18.30
2018-10-06T07:53:30.103Z,19.30
2018-10-06T07:56:04.391Z,19.80
2018-10-06T07:58:37.093Z,20.90
2018-10-06T08:01:05.937Z,20.40
2018-10-06T08:03:37.586Z,20.90
2018-10-06T08:06:07.308Z,20.70
2018-10-06T08:08:36.752Z,21.50
2018-10-06T08:11:07.484Z,21.70
2018-10-06T08:13:37.285Z,21.90
2018-10-06T08:16:07.745Z,22.40
2018-10-06T08:18:36.268Z,21.90
2018-10-06T08:21:05.852Z,21.80
2018-10-06T08:23:44.894Z,21.50
2018-10-06T08:26:17.799Z,21.70
2018-10-06T08:29:10.392Z,22.00
2018-10-06T08:32:08.652Z,22.30
2018-10-06T08:34:39.128Z,21.50
2018-10-06T08:37:09.976Z,22.10
2018-10-06T08:39:39.790Z,21.40
2018-10-06T08:42:10.758Z,21.00
2018-10-06T08:44:40.422Z,20.70
2018-10-06T08:48:09.109Z,19.70
2018-10-06T08:51:16.809Z,20.30
2018-10-06T08:53:48.652Z,20.10
2018-10-06T08:56:18.504Z,18.80
2018-10-06T08:58:47.390Z,18.20
2018-10-06T09:01:19.447Z,17.80
2018-10-06T09:03:58.661Z,17.30
2018-10-06T09:06:32.203Z,17.50
2018-10-06T09:09:03.098Z,17.50
2018-10-06T09:11:35.993Z,17.40
2018-10-06T09:14:07.384Z,17.70
2018-10-06T09:25:04.758Z,17.90
2018-10-06T09:27:37.616Z,17.80
2018-10-06T09:30:11.462Z,18.00
2018-10-06T09:32:42.415Z,18.10
2018-10-06T09:35:13.607Z,18.00
2018-10-06T09:37:45.706Z,18.00
2018-10-06T09:40:14.679Z,18.10
2018-10-06T09:42:43.931Z,18.30
2018-10-06T09:45:12.306Z,18.40
2018-10-06T09:47:42.275Z,18.60
2018-10-06T09:50:12.895Z,18.50
2018-10-06T09:52:43.761Z,18.40
2018-10-06T09:55:27.958Z,18.60
2018-10-06T09:57:57.106Z,18.60
2018-10-06T10:00:31.502Z,18.60
2018-10-06T10:04:11.947Z,18.80
2018-10-06T10:06:41.080Z,19.00
2018-10-06T10:09:17.337Z,19.20
2018-10-06T10:11:45.787Z,19.30
2018-10-06T10:14:15.294Z,19.30
2018-10-06T10:16:44.919Z,19.40
2018-10-06T10:19:13.730Z,19.30
2018-10-06T10:21:43.306Z,19.30
2018-10-06T10:24:12.251Z,19.20
2018-10-06T10:26:46.224Z,19.50
2018-10-06T10:29:18.527Z,19.60
2018-10-06T10:31:50.551Z,19.50
2018-10-06T10:34:21.651Z,19.50
2018-10-06T10:41:05.940Z,19.70
2018-10-06T10:43:35.234Z,19.80
2018-10-06T10:46:43.260Z,20.00
2018-10-06T10:55:26.806Z,20.10
2018-10-06T10:57:57.455Z,20.10
2018-10-06T11:03:20.108Z,20.10
2018-10-06T11:05:54.643Z,20.20
2018-10-06T11:08:27.308Z,20.30
2018-10-06T11:10:59.270Z,20.30
2018-10-06T11:13:32.005Z,20.30
2018-10-06T11:16:06.601Z,20.50
2018-10-06T11:19:17.156Z,20.60
2018-10-06T11:21:51.283Z,20.50
2018-10-06T11:24:22.821Z,20.60
2018-10-06T11:26:52.860Z,20.70
2018-10-06T11:29:22.785Z,21.00
2018-10-06T11:31:51.962Z,21.00
2018-10-06T11:34:26.101Z,21.00
2018-10-06T11:37:03.779Z,21.10
2018-10-06T11:39:38.415Z,21.00
2018-10-06T11:42:07.414Z,21.10
2018-10-06T11:44:36.393Z,21.10
2018-10-06T11:47:05.342Z,21.20
2018-10-06T11:49:33.437Z,21.10
2018-10-06T11:52:06.819Z,21.20
2018-10-06T11:54:39.474Z,21.10
2018-10-06T11:57:11.014Z,21.00
2018-10-06T11:59:40.269Z,20.90
2018-10-06T12:02:08.890Z,20.90
2018-10-06T12:04:40.397Z,20.90
2018-10-06T12:07:09.873Z,21.10
2018-10-06T12:09:39.670Z,21.20
2018-10-06T12:12:09.159Z,21.30
2018-10-06T12:15:44.031Z,21.40
2018-10-06T12:18:20.225Z,21.40
2018-10-06T12:20:51.183Z,21.20
2018-10-06T12:23:21.089Z,21.10
2018-10-06T12:26:03.423Z,21.20
2018-10-06T12:28:32.942Z,21.40
2018-10-06T12:31:37.393Z,21.50
2018-10-06T12:34:08.387Z,21.70
2018-10-06T12:43:06.505Z,21.60
2018-10-06T12:45:38.659Z,21.80
2018-10-06T12:48:09.002Z,21.90
2018-10-06T12:51:08.408Z,21.70
2018-10-06T12:53:45.114Z,21.90
2018-10-06T12:59:52.663Z,21.80
2018-10-06T13:02:22.770Z,21.90
2018-10-06T13:08:16.690Z,21.90
2018-10-06T13:10:54.318Z,21.90
2018-10-06T13:13:25.424Z,21.70
2018-10-06T13:16:03.280Z,21.80
2018-10-06T13:18:36.797Z,22.00
2018-10-06T13:24:56.830Z,22.00
2018-10-06T13:27:29.762Z,22.20
2018-10-06T13:29:59.427Z,21.80
2018-10-06T13:32:27.604Z,21.80
2018-10-06T13:39:01.282Z,21.40
2018-10-06T13:41:30.911Z,21.50
2018-10-06T13:44:00.747Z,21.50
2018-10-06T13:46:31.526Z,21.30
2018-10-06T13:49:04.446Z,21.30
2018-10-06T13:51:48.333Z,21.30
2018-10-06T13:54:18.524Z,21.30
2018-10-06T13:56:48.804Z,21.30
2018-10-06T13:59:17.840Z,21.40
2018-10-06T14:01:48.828Z,21.60
2018-10-06T14:04:19.592Z,21.80
2018-10-06T14:07:12.490Z,22.00
2018-10-06T14:13:08.620Z,22.00
2018-10-06T14:15:41.110Z,22.10
2018-10-06T14:18:18.872Z,22.10
2018-10-06T14:21:24.991Z,21.90
2018-10-06T14:23:54.161Z,21.80
2018-10-06T14:26:22.891Z,21.60
2018-10-06T14:33:00.898Z,21.50
2018-10-06T14:35:30.260Z,21.40
2018-10-06T14:37:58.537Z,21.20
2018-10-06T14:40:54.826Z,21.20
2018-10-06T14:43:45.524Z,21.10
2018-10-06T14:46:16.310Z,21.00
2018-10-06T14:48:48.719Z,20.90
2018-10-06T14:55:36.738Z,20.80
2018-10-06T14:58:08.743Z,20.80
2018-10-06T15:07:07.971Z,20.60
2018-10-06T15:12:25.649Z,20.50
2018-10-06T15:18:21.319Z,20.40
2018-10-06T15:20:50.785Z,20.40
2018-10-06T15:23:46.750Z,20.40
2018-10-06T15:26:18.048Z,20.40
2018-10-06T15:28:51.250Z,20.30
2018-10-06T15:31:28.121Z,20.30
2018-10-06T15:34:01.993Z,20.40
2018-10-06T15:36:35.234Z,20.30
2018-10-06T15:39:06.781Z,20.30
2018-10-06T15:41:35.395Z,20.20
2018-10-06T15:44:40.604Z,20.20
2018-10-06T15:50:33.894Z,20.20
2018-10-06T15:53:06.307Z,20.10
2018-10-06T15:56:06.669Z,20.00
2018-10-06T15:59:05.797Z,20.00
2018-10-06T16:01:37.498Z,19.90
2018-10-06T16:04:06.541Z,19.90
2018-10-06T16:06:42.502Z,19.90
2018-10-06T16:09:25.487Z,19.80
2018-10-06T16:11:58.050Z,19.70
2018-10-06T16:14:27.708Z,19.70
2018-10-06T16:16:59.069Z,19.60
2018-10-06T16:20:23.623Z,19.50
2018-10-06T16:23:23.737Z,19.40
2018-10-06T16:26:03.454Z,19.40
2018-10-06T16:28:46.779Z,19.40
2018-10-06T16:31:20.504Z,19.40
2018-10-06T16:33:48.730Z,19.40
2018-10-06T16:36:18.976Z,19.40
2018-10-06T16:38:52.520Z,19.30
2018-10-06T16:41:24.346Z,19.20
2018-10-06T16:43:55.702Z,19.10
2018-10-06T16:46:35.295Z,19.10
2018-10-06T16:49:13.536Z,19.00
2018-10-06T16:55:53.503Z,19.00
2018-10-06T17:04:26.762Z,18.80
2018-10-06T17:06:55.015Z,18.80
2018-10-06T17:09:25.414Z,18.80
2018-10-06T17:11:54.947Z,18.70
2018-10-06T17:14:24.977Z,18.70
2018-10-06T17:16:56.108Z,18.70
2018-10-06T17:19:26.751Z,18.70
2018-10-06T17:22:23.894Z,18.60
2018-10-06T17:24:54.508Z,18.60
2018-10-06T17:27:23.892Z,18.50
2018-10-06T17:29:56.713Z,18.50
2018-10-06T17:32:33.763Z,18.50
2018-10-06T17:35:03.272Z,18.40
2018-10-06T17:37:37.792Z,18.40
2018-10-06T17:40:19.231Z,18.30
2018-10-06T17:43:00.961Z,18.30
2018-10-06T17:48:19.151Z,18.30
2018-10-06T17:51:06.571Z,18.20
2018-10-06T17:53:38.063Z,18.20
2018-10-06T18:00:01.186Z,18.00
2018-10-06T18:09:25.809Z,17.70
2018-10-06T18:12:03.584Z,17.50
2018-10-06T18:14:43.025Z,17.30
2018-10-06T18:17:16.167Z,17.20
2018-10-06T18:19:45.358Z,17.00
2018-10-06T18:22:15.096Z,16.90
2018-10-06T18:24:46.556Z,16.80
2018-10-06T18:27:15.989Z,16.70
2018-10-06T18:29:45.902Z,16.70
2018-10-06T18:32:19.839Z,16.70
2018-10-06T18:34:54.111Z,16.60
2018-10-06T18:37:26.438Z,16.60
2018-10-06T18:39:56.926Z,16.50
2018-10-06T18:42:27.703Z,16.60
2018-10-06T18:44:58.967Z,16.60
2018-10-06T18:47:33.948Z,16.50
2018-10-06T18:50:07.785Z,16.40
2018-10-06T18:52:36.896Z,16.40
2018-10-06T18:55:11.974Z,16.40
2018-10-06T18:58:02.613Z,16.30
2018-10-06T19:04:01.620Z,16.30
2018-10-06T19:06:38.365Z,16.20
2018-10-06T19:09:15.185Z,16.20
2018-10-06T19:12:16.104Z,16.20
2018-10-06T19:14:44.575Z,16.10
2018-10-06T19:17:15.550Z,16.10
2018-10-06T19:19:45.919Z,16.10
2018-10-06T19:22:20.689Z,16.10
2018-10-06T19:24:55.999Z,16.00
2018-10-06T19:27:31.343Z,16.00
2018-10-06T19:30:12.669Z,16.00
2018-10-06T19:32:44.744Z,16.00
2018-10-06T19:35:19.614Z,16.10
2018-10-06T19:41:23.806Z,15.90
2018-10-06T19:43:56.369Z,15.90
2018-10-06T19:46:26.923Z,15.90
2018-10-06T19:49:04.117Z,15.90
2018-10-06T19:52:33.174Z,15.80
2018-10-06T20:01:46.292Z,15.60
2018-10-06T20:04:19.011Z,15.60
2018-10-06T20:06:50.532Z,15.60
2018-10-06T20:09:22.652Z,15.60
2018-10-06T20:12:24.233Z,15.60
2018-10-06T20:14:54.015Z,15.50
2018-10-06T20:21:14.455Z,15.50
2018-10-06T20:23:48.413Z,15.50
2018-10-06T20:26:16.838Z,15.50
2018-10-06T20:28:47.032Z,15.50
2018-10-06T20:31:19.282Z,15.50
2018-10-06T20:33:48.774Z,15.50
2018-10-06T20:36:45.129Z,15.50
2018-10-06T20:39:13.916Z,15.50
2018-10-06T20:41:43.358Z,15.50
2018-10-06T20:44:12.343Z,15.40
2018-10-06T20:46:41.415Z,15.40
2018-10-06T20:49:11.511Z,15.40
2018-10-06T20:51:52.765Z,15.30
2018-10-06T20:55:09.541Z,15.20
2018-10-06T20:57:40.703Z,15.20
2018-10-06T21:00:16.116Z,15.20
2018-10-06T21:02:53.136Z,15.10
2018-10-06T21:05:25.012Z,15.10
2018-10-06T21:07:56.860Z,15.10
2018-10-06T21:10:25.381Z,15.10
2018-10-06T21:12:55.326Z,15.00
2018-10-06T21:15:40.425Z,14.90
2018-10-06T21:18:14.701Z,14.90
2018-10-06T21:20:43.799Z,14.90
2018-10-06T21:23:13.687Z,14.90
2018-10-06T21:25:47.111Z,14.90
2018-10-06T21:28:19.240Z,14.80
2018-10-06T21:30:49.372Z,14.80
2018-10-06T21:33:17.624Z,14.70
2018-10-06T21:35:47.227Z,14.60
2018-10-06T21:38:42.835Z,14.50
2018-10-06T21:41:12.019Z,14.50
2018-10-06T21:43:57.566Z,14.50
2018-10-06T21:46:28.520Z,14.50
2018-10-06T21:49:00.072Z,14.40
2018-10-06T21:51:31.406Z,14.40
2018-10-06T21:54:03.929Z,14.40
2018-10-06T21:56:37.374Z,14.30
2018-10-06T21:59:06.387Z,14.30
2018-10-06T22:01:35.842Z,14.30
2018-10-06T22:04:06.409Z,14.20
2018-10-06T22:06:39.627Z,14.20
2018-10-06T22:09:12.158Z,14.20
2018-10-06T22:11:43.475Z,14.20
2018-10-06T22:14:17.233Z,14.20
2018-10-06T22:16:46.896Z,14.10
2018-10-06T22:19:18.713Z,14.10
2018-10-06T22:22:30.415Z,14.10
2018-10-06T22:25:06.259Z,14.10
2018-10-06T22:27:34.951Z,14.10
2018-10-06T22:30:06.194Z,14.00
2018-10-06T22:32:35.234Z,14.00
2018-10-06T22:35:04.425Z,14.00
2018-10-06T22:37:34.787Z,13.90
2018-10-06T22:40:05.903Z,13.80
2018-10-06T22:42:35.630Z,13.90
2018-10-06T22:45:06.497Z,13.80
2018-10-06T22:47:35.130Z,13.80
2018-10-06T22:50:06.453Z,13.80
2018-10-06T22:52:36.007Z,13.80
2018-10-06T22:55:15.963Z,13.70
2018-10-06T22:58:01.023Z,13.70
2018-10-06T23:00:33.424Z,13.70
2018-10-06T23:03:04.324Z,13.50
2018-10-06T23:09:17.262Z,13.40
2018-10-06T23:11:49.072Z,13.40
2018-10-06T23:14:18.582Z,13.30
2018-10-06T23:20:03.150Z,13.20
2018-10-06T23:22:34.891Z,13.30
2018-10-06T23:25:08.875Z,13.20
2018-10-06T23:27:38.198Z,13.20
2018-10-06T23:30:10.893Z,13.20
2018-10-06T23:32:41.825Z,13.10
2018-10-06T23:35:10.221Z,13.00
2018-10-06T23:37:40.124Z,12.90
2018-10-06T23:40:10.768Z,12.90
2018-10-06T23:42:39.976Z,12.80
2018-10-06T23:45:08.288Z,12.80
2018-10-06T23:47:38.549Z,12.80
2018-10-06T23:50:07.859Z,12.70
2018-10-06T23:52:38.262Z,12.70
2018-10-06T23:55:11.377Z,12.60
2018-10-06T23:57:42.409Z,12.60
